Time;durP1;ratioP1;P1;durP2;ratioP2;P2;SDS_P1;SDS_P2;PMS_P1;PMS_P2;Temp;Humidity;BMP_temperature;BMP_pressure;BME280_temperature;BME280_humidity;BME280_pressure;Samples;Min_cycle;Max_cycle;Signal;HPM_P1;HPM_P2
2022/11/26 00:00:43;;;;;;;;;;;5.40;94.20;;;;;;4995694;28;19906;-49
2022/11/26 00:03:11;;;;;;;;;;;5.40;94.20;;;;;;4998933;28;20266;-52
2022/11/26 00:05:38;;;;;;;;;;;5.40;94.10;;;;;;5013514;28;19920;-52
2022/11/26 00:08:13;;;;;;;;;;;5.30;94.10;;;;;;5008932;28;20381;-51
2022/11/26 00:10:40;;;;;;;;;;;5.30;94.10;;;;;;5010273;28;19922;-50
2022/11/26 00:13:13;;;;;;;;;;;5.30;94.10;;;;;;5026240;28;19914;-53
2022/11/26 00:15:40;;;;;;;;;;;5.30;94.10;;;;;;4995276;28;19925;-52
2022/11/26 00:18:05;;;;;;;;;;;5.20;94.00;;;;;;5004951;28;19980;-52
2022/11/26 00:20:33;;;;;;;;;;;5.20;94.00;;;;;;5007853;28;20294;-52
2022/11/26 00:23:04;;;;;;;;;;;5.20;94.10;;;;;;5007196;28;19997;-53
2022/11/26 00:25:42;;;;;;;;;;;5.10;94.00;;;;;;5012778;28;19909;-50
2022/11/26 00:28:22;;;;;;;;;;;5.10;94.00;;;;;;5012022;28;19916;-51
2022/11/26 00:30:49;;;;;;;;;;;5.10;93.90;;;;;;5011054;28;19928;-52
2022/11/26 00:33:15;;;;;;;;;;;5.10;93.90;;;;;;4994992;28;19906;-51
2022/11/26 00:35:45;;;;;;;;;;;5.00;93.90;;;;;;5011691;28;19910;-51
2022/11/26 00:38:14;;;;;;;;;;;5.00;93.80;;;;;;5014641;28;19982;-49
2022/11/26 00:40:43;;;;;;;;;;;5.00;93.80;;;;;;4996610;28;20319;-54
2022/11/26 00:43:14;;;;;;;;;;;4.90;93.80;;;;;;5008143;28;19913;-50
2022/11/26 00:45:41;;;;;;;;;;;4.90;93.70;;;;;;4997402;28;20624;-51
2022/11/26 00:48:07;;;;;;;;;;;4.90;93.70;;;;;;5014218;28;20016;-54
2022/11/26 00:50:39;;;;;;;;;;;4.80;93.70;;;;;;5003942;28;19976;-51
2022/11/26 00:53:07;;;;;;;;;;;4.80;93.70;;;;;;5013212;28;19941;-54
2022/11/26 00:55:51;;;;;;;;;;;4.80;93.70;;;;;;5010572;28;20223;-52
2022/11/26 00:58:24;;;;;;;;;;;4.70;93.70;;;;;;5011493;28;19913;-54
2022/11/26 01:00:51;;;;;;;;;;;4.70;93.70;;;;;;5008275;28;20334;-52
2022/11/26 01:03:18;;;;;;;;;;;4.70;93.70;;;;;;4994331;28;19910;-51
2022/11/26 01:05:43;;;;;;;;;;;4.70;93.70;;;;;;4997652;28;19910;-51
2022/11/26 01:08:25;;;;;;;;;;;4.70;93.70;;;;;;4994206;28;19910;-53
2022/11/26 01:10:51;;;;;;;;;;;4.60;93.60;;;;;;5006627;28;19932;-51
2022/11/26 01:13:19;;;;;;;;;;;4.70;93.70;;;;;;5012423;28;20385;-52
2022/11/26 01:15:47;;;;;;;;;;;4.70;93.60;;;;;;5012165;28;19921;-51
2022/11/26 01:18:13;;;;;;;;;;;4.60;93.60;;;;;;5012736;28;20323;-49
2022/11/26 01:20:39;;;;;;;;;;;4.60;93.60;;;;;;5013020;28;19916;-51
2022/11/26 01:23:08;;;;;;;;;;;4.60;93.60;;;;;;5008760;28;19910;-52
2022/11/26 01:25:35;;;;;;;;;;;4.50;93.60;;;;;;4994165;28;19905;-52
2022/11/26 01:28:02;;;;;;;;;;;4.50;93.60;;;;;;5003121;28;20358;-52
2022/11/26 01:30:30;;;;;;;;;;;4.50;93.60;;;;;;5014015;28;19919;-52
2022/11/26 01:32:59;;;;;;;;;;;4.50;93.60;;;;;;5009980;28;19910;-50
2022/11/26 01:35:27;;;;;;;;;;;4.50;93.60;;;;;;5013873;28;19927;-52
2022/11/26 01:37:54;;;;;;;;;;;4.50;93.60;;;;;;4996771;28;19921;-49
2022/11/26 01:40:37;;;;;;;;;;;4.50;93.60;;;;;;5009695;28;20728;-50
2022/11/26 01:43:21;;;;;;;;;;;4.50;93.60;;;;;;5000787;28;20250;-53
2022/11/26 01:45:48;;;;;;;;;;;4.50;93.60;;;;;;4994063;28;19960;-50
2022/11/26 01:48:23;;;;;;;;;;;4.50;93.70;;;;;;4994131;28;20334;-51
2022/11/26 01:51:02;;;;;;;;;;;4.50;93.60;;;;;;4993779;28;19913;-54
2022/11/26 01:53:48;;;;;;;;;;;4.50;93.60;;;;;;4994364;28;19906;-50
2022/11/26 01:56:32;;;;;;;;;;;4.50;93.60;;;;;;5006757;28;19910;-55
2022/11/26 01:59:07;;;;;;;;;;;4.40;93.60;;;;;;4996035;28;19995;-52
2022/11/26 02:01:34;;;;;;;;;;;4.40;93.60;;;;;;5009228;28;19905;-52
2022/11/26 02:04:18;;;;;;;;;;;4.50;93.60;;;;;;5002170;28;19924;-50
2022/11/26 02:06:46;;;;;;;;;;;4.50;93.70;;;;;;5013376;28;19917;-49
2022/11/26 02:09:13;;;;;;;;;;;4.50;93.70;;;;;;5008977;28;19909;-54
2022/11/26 02:11:40;;;;;;;;;;;4.50;93.70;;;;;;5008916;28;20266;-51
2022/11/26 02:14:17;;;;;;;;;;;4.50;93.60;;;;;;5009354;28;20321;-51
2022/11/26 02:17:02;;;;;;;;;;;4.50;93.60;;;;;;5015585;28;20492;-52
2022/11/26 02:19:48;;;;;;;;;;;4.50;93.60;;;;;;5011872;28;19914;-49
2022/11/26 02:22:22;;;;;;;;;;;4.50;93.60;;;;;;4995953;28;19921;-49
2022/11/26 02:25:04;;;;;;;;;;;4.50;93.60;;;;;;5006070;28;19913;-54
2022/11/26 02:27:38;;;;;;;;;;;4.50;93.70;;;;;;5016569;28;19936;-53
2022/11/26 02:30:22;;;;;;;;;;;4.50;93.70;;;;;;5014186;28;19968;-51
2022/11/26 02:33:10;;;;;;;;;;;4.50;93.70;;;;;;5016963;28;19916;-53
2022/11/26 02:35:57;;;;;;;;;;;4.50;93.70;;;;;;5017006;28;19905;-55
2022/11/26 02:38:29;;;;;;;;;;;4.50;93.70;;;;;;5016637;28;20261;-54
2022/11/26 02:40:59;;;;;;;;;;;4.50;93.70;;;;;;5006891;28;20250;-50
2022/11/26 02:43:26;;;;;;;;;;;4.50;93.70;;;;;;5008780;28;20327;-53
2022/11/26 02:45:54;;;;;;;;;;;4.50;93.70;;;;;;5003080;28;19914;-50
2022/11/26 02:48:26;;;;;;;;;;;4.50;93.70;;;;;;4997043;28;19914;-51
2022/11/26 02:50:58;;;;;;;;;;;4.50;93.70;;;;;;5015582;28;19909;-51
2022/11/26 02:53:27;;;;;;;;;;;4.50;93.70;;;;;;5006410;28;19916;-52
2022/11/26 02:55:59;;;;;;;;;;;4.50;93.80;;;;;;4984591;28;19913;-51
2022/11/26 02:58:28;;;;;;;;;;;4.50;93.80;;;;;;4996935;28;19910;-53
2022/11/26 03:00:56;;;;;;;;;;;4.50;93.80;;;;;;5015613;28;20331;-54
2022/11/26 03:03:25;;;;;;;;;;;4.50;93.90;;;;;;5012913;28;19995;-51
2022/11/26 03:05:57;;;;;;;;;;;4.50;93.90;;;;;;4996083;28;19917;-52
2022/11/26 03:08:25;;;;;;;;;;;4.50;93.90;;;;;;5009381;28;19917;-52
2022/11/26 03:10:54;;;;;;;;;;;4.50;93.90;;;;;;5009868;28;19949;-50
2022/11/26 03:13:21;;;;;;;;;;;4.50;93.90;;;;;;4996061;28;20356;-51
2022/11/26 03:15:48;;;;;;;;;;;4.50;93.90;;;;;;5012786;28;20338;-50
2022/11/26 03:18:14;;;;;;;;;;;4.50;93.90;;;;;;5011802;28;20335;-51
2022/11/26 03:20:41;;;;;;;;;;;4.50;94.00;;;;;;4996399;28;19910;-50
2022/11/26 03:23:08;;;;;;;;;;;4.50;93.90;;;;;;5011245;28;19967;-54
2022/11/26 03:25:35;;;;;;;;;;;4.50;93.90;;;;;;5015209;28;19955;-52
2022/11/26 03:28:02;;;;;;;;;;;4.50;93.90;;;;;;5009532;28;19914;-51
2022/11/26 03:30:29;;;;;;;;;;;4.50;94.00;;;;;;5007783;28;19963;-51
2022/11/26 03:32:56;;;;;;;;;;;4.50;94.00;;;;;;5015751;28;19905;-53
2022/11/26 03:35:23;;;;;;;;;;;4.50;93.90;;;;;;5012349;28;19910;-51
2022/11/26 03:37:49;;;;;;;;;;;4.50;94.00;;;;;;5011908;28;19913;-51
2022/11/26 03:40:16;;;;;;;;;;;4.50;94.00;;;;;;5014787;28;19952;-54
2022/11/26 03:42:43;;;;;;;;;;;4.50;93.90;;;;;;5009751;28;19959;-53
2022/11/26 03:45:09;;;;;;;;;;;4.50;93.90;;;;;;5009459;28;19910;-50
2022/11/26 03:47:39;;;;;;;;;;;4.40;93.90;;;;;;5015228;28;19909;-55
2022/11/26 03:50:06;;;;;;;;;;;4.40;93.90;;;;;;5010014;28;19913;-50
2022/11/26 03:52:33;;;;;;;;;;;4.40;94.00;;;;;;5012305;28;19914;-54
2022/11/26 03:55:03;;;;;;;;;;;4.40;94.00;;;;;;5014525;28;19910;-52
2022/11/26 03:57:30;;;;;;;;;;;4.40;94.00;;;;;;5012136;28;19910;-52
2022/11/26 03:59:56;;;;;;;;;;;4.40;94.00;;;;;;5009125;28;20287;-49
2022/11/26 04:02:26;;;;;;;;;;;4.40;93.90;;;;;;5015155;28;19905;-50
2022/11/26 04:04:53;;;;;;;;;;;4.40;93.90;;;;;;5015057;28;19957;-52
2022/11/26 04:07:22;;;;;;;;;;;4.30;93.90;;;;;;5005443;28;19914;-53
2022/11/26 04:09:49;;;;;;;;;;;4.30;93.90;;;;;;4995234;28;19928;-52
2022/11/26 04:12:16;;;;;;;;;;;4.30;94.00;;;;;;4996537;28;19957;-51
2022/11/26 04:14:43;;;;;;;;;;;4.30;94.00;;;;;;5007444;28;19925;-53
2022/11/26 04:17:10;;;;;;;;;;;4.30;93.90;;;;;;5013723;28;20247;-49
2022/11/26 04:19:37;;;;;;;;;;;4.30;94.00;;;;;;5013655;28;19909;-51
2022/11/26 04:22:04;;;;;;;;;;;4.30;94.00;;;;;;5009837;28;19963;-49
2022/11/26 04:24:31;;;;;;;;;;;4.40;94.00;;;;;;5013804;28;19932;-52
2022/11/26 04:27:00;;;;;;;;;;;4.30;94.10;;;;;;5009356;28;19909;-50
2022/11/26 04:29:27;;;;;;;;;;;4.30;94.10;;;;;;4994195;28;19906;-52
2022/11/26 04:31:54;;;;;;;;;;;4.30;94.10;;;;;;4995670;28;19913;-50
2022/11/26 04:34:21;;;;;;;;;;;4.20;94.00;;;;;;4995165;28;19925;-52
2022/11/26 04:36:47;;;;;;;;;;;4.30;94.10;;;;;;4994671;28;20012;-51
2022/11/26 04:39:14;;;;;;;;;;;4.30;94.10;;;;;;4993901;28;19906;-53
2022/11/26 04:41:41;;;;;;;;;;;4.20;94.10;;;;;;4993022;28;19906;-51
2022/11/26 04:44:12;;;;;;;;;;;4.20;94.10;;;;;;5006131;28;20052;-54
2022/11/26 04:46:38;;;;;;;;;;;4.20;94.00;;;;;;5013452;28;19905;-51
2022/11/26 04:49:04;;;;;;;;;;;4.20;94.00;;;;;;5013478;28;19925;-52
2022/11/26 04:51:31;;;;;;;;;;;4.20;94.00;;;;;;5010140;28;19992;-52
2022/11/26 04:53:57;;;;;;;;;;;4.20;94.00;;;;;;5008506;28;19909;-55
2022/11/26 04:56:24;;;;;;;;;;;4.20;94.00;;;;;;5011982;28;20270;-54
2022/11/26 04:58:51;;;;;;;;;;;4.10;93.90;;;;;;5004806;28;19956;-53
2022/11/26 05:01:18;;;;;;;;;;;4.10;94.00;;;;;;5008000;28;19948;-52
2022/11/26 05:03:44;;;;;;;;;;;4.10;94.00;;;;;;5013101;28;19906;-49
2022/11/26 05:06:15;;;;;;;;;;;4.10;94.00;;;;;;5012196;28;20290;-54
2022/11/26 05:08:41;;;;;;;;;;;4.10;94.00;;;;;;5011908;28;19910;-51
2022/11/26 05:11:08;;;;;;;;;;;4.10;94.00;;;;;;5013335;28;19921;-50
2022/11/26 05:13:35;;;;;;;;;;;4.10;94.00;;;;;;4995546;28;19959;-53
2022/11/26 05:16:03;;;;;;;;;;;4.10;94.00;;;;;;5010281;28;20012;-53
2022/11/26 05:18:29;;;;;;;;;;;4.10;93.90;;;;;;5006044;28;19928;-51
2022/11/26 05:20:56;;;;;;;;;;;4.10;93.90;;;;;;5011347;28;19909;-50
2022/11/26 05:23:23;;;;;;;;;;;4.10;93.90;;;;;;5003268;28;20000;-51
2022/11/26 05:25:50;;;;;;;;;;;4.10;93.90;;;;;;5010817;28;20337;-51
2022/11/26 05:28:17;;;;;;;;;;;4.00;93.90;;;;;;5010902;28;19920;-54
2022/11/26 05:30:46;;;;;;;;;;;4.00;93.90;;;;;;5010965;28;20681;-53
2022/11/26 05:33:12;;;;;;;;;;;4.00;93.90;;;;;;5012658;28;20311;-50
2022/11/26 05:35:39;;;;;;;;;;;4.00;93.90;;;;;;5011612;28;19913;-50
2022/11/26 05:38:06;;;;;;;;;;;4.00;94.00;;;;;;5013205;28;19968;-53
2022/11/26 05:40:32;;;;;;;;;;;4.00;94.00;;;;;;5011144;28;19909;-53
2022/11/26 05:42:59;;;;;;;;;;;4.00;93.90;;;;;;5009242;28;19955;-52
2022/11/26 05:45:26;;;;;;;;;;;4.00;93.90;;;;;;5012112;28;19917;-51
2022/11/26 05:47:53;;;;;;;;;;;4.00;93.90;;;;;;5011303;28;20234;-50
2022/11/26 05:50:19;;;;;;;;;;;3.90;93.90;;;;;;5011741;28;19913;-51
2022/11/26 05:52:46;;;;;;;;;;;3.90;93.90;;;;;;5016008;28;20338;-51
2022/11/26 05:55:15;;;;;;;;;;;3.90;93.90;;;;;;5015000;28;19937;-50
2022/11/26 05:57:42;;;;;;;;;;;3.90;93.90;;;;;;5015452;28;20043;-51
2022/11/26 06:00:10;;;;;;;;;;;3.90;93.90;;;;;;5014333;28;20698;-54
2022/11/26 06:02:37;;;;;;;;;;;3.90;93.90;;;;;;5015936;28;20238;-52
2022/11/26 06:05:07;;;;;;;;;;;3.90;93.90;;;;;;5016657;28;19909;-53
2022/11/26 06:07:34;;;;;;;;;;;3.90;93.90;;;;;;5015385;28;19905;-52
2022/11/26 06:10:01;;;;;;;;;;;3.90;93.90;;;;;;5002538;28;20276;-55
2022/11/26 06:12:28;;;;;;;;;;;3.90;93.80;;;;;;5001147;28;19923;-51
2022/11/26 06:14:55;;;;;;;;;;;3.80;93.90;;;;;;5010725;28;19983;-50
2022/11/26 06:17:21;;;;;;;;;;;3.80;93.90;;;;;;5014210;28;19910;-52
2022/11/26 06:19:49;;;;;;;;;;;3.80;93.90;;;;;;4996743;28;20018;-54
2022/11/26 06:22:14;;;;;;;;;;;3.80;93.90;;;;;;4996757;28;19910;-50
2022/11/26 06:24:41;;;;;;;;;;;3.70;93.80;;;;;;5012095;28;19917;-55
2022/11/26 06:27:08;;;;;;;;;;;3.80;93.80;;;;;;5012378;28;20343;-50
2022/11/26 06:29:35;;;;;;;;;;;3.80;93.80;;;;;;5006277;28;20361;-50
2022/11/26 06:32:05;;;;;;;;;;;3.80;93.80;;;;;;5004749;28;20010;-52
2022/11/26 06:34:32;;;;;;;;;;;3.80;93.80;;;;;;5012637;28;19971;-53
2022/11/26 06:36:59;;;;;;;;;;;3.80;93.90;;;;;;5014809;28;19909;-52
2022/11/26 06:39:24;;;;;;;;;;;3.80;93.90;;;;;;5015544;28;19909;-53
2022/11/26 06:41:51;;;;;;;;;;;3.80;93.90;;;;;;5014474;28;19971;-53
2022/11/26 06:44:18;;;;;;;;;;;3.70;93.90;;;;;;5016358;28;20331;-54
2022/11/26 06:46:44;;;;;;;;;;;3.70;93.90;;;;;;5014131;28;19979;-52
2022/11/26 06:49:10;;;;;;;;;;;3.70;93.90;;;;;;5016497;28;19967;-51
2022/11/26 06:51:37;;;;;;;;;;;3.70;93.90;;;;;;4996830;28;19914;-53
2022/11/26 06:54:02;;;;;;;;;;;3.70;93.90;;;;;;5012556;28;19920;-54
2022/11/26 06:56:34;;;;;;;;;;;3.70;93.80;;;;;;5015925;28;19909;-50
2022/11/26 06:59:01;;;;;;;;;;;3.70;93.90;;;;;;5013173;28;19927;-55
2022/11/26 07:01:28;;;;;;;;;;;3.60;93.80;;;;;;5013820;28;19910;-54
2022/11/26 07:03:55;;;;;;;;;;;3.60;93.80;;;;;;5011852;28;19913;-54
2022/11/26 07:06:22;;;;;;;;;;;3.50;93.80;;;;;;5015564;28;19913;-55
2022/11/26 07:08:50;;;;;;;;;;;3.50;93.80;;;;;;5015857;28;19913;-55
2022/11/26 07:11:17;;;;;;;;;;;3.50;93.80;;;;;;5014939;28;19917;-57
2022/11/26 07:13:44;;;;;;;;;;;3.50;93.80;;;;;;5011460;28;20247;-51
2022/11/26 07:16:10;;;;;;;;;;;3.50;93.80;;;;;;5009760;28;20485;-55
2022/11/26 07:18:37;;;;;;;;;;;3.50;93.80;;;;;;5005209;28;19910;-51
2022/11/26 07:21:04;;;;;;;;;;;3.50;93.80;;;;;;4998649;28;19913;-54
2022/11/26 07:23:31;;;;;;;;;;;3.40;93.70;;;;;;5008286;28;19909;-57
2022/11/26 07:25:58;;;;;;;;;;;3.40;93.80;;;;;;5015252;28;19905;-54
2022/11/26 07:28:25;;;;;;;;;;;3.40;93.80;;;;;;5015553;28;19906;-53
2022/11/26 07:30:52;;;;;;;;;;;3.50;94.00;;;;;;5001604;28;20403;-54
2022/11/26 07:33:19;;;;;;;;;;;3.40;93.90;;;;;;5014825;28;19920;-54
2022/11/26 07:35:48;;;;;;;;;;;3.40;93.80;;;;;;5013692;28;20000;-52
2022/11/26 07:38:15;;;;;;;;;;;3.40;94.00;;;;;;5013019;28;20037;-54
2022/11/26 07:40:42;;;;;;;;;;;3.60;94.40;;;;;;5014183;28;19909;-53
2022/11/26 07:43:09;;;;;;;;;;;3.70;94.20;;;;;;5013589;28;20319;-51
2022/11/26 07:45:36;;;;;;;;;;;3.70;94.20;;;;;;5014872;28;19924;-56
2022/11/26 07:48:03;;;;;;;;;;;3.70;93.90;;;;;;5013451;28;19909;-55
2022/11/26 07:50:30;;;;;;;;;;;3.60;93.80;;;;;;5014027;28;19914;-54
2022/11/26 07:52:57;;;;;;;;;;;3.60;93.80;;;;;;5014197;28;19913;-52
2022/11/26 07:55:23;;;;;;;;;;;3.50;93.80;;;;;;5012402;28;19955;-53
2022/11/26 07:57:52;;;;;;;;;;;3.50;93.80;;;;;;5008627;28;19949;-51
2022/11/26 08:00:19;;;;;;;;;;;3.50;93.90;;;;;;4995778;28;19964;-54
2022/11/26 08:02:46;;;;;;;;;;;3.60;93.90;;;;;;5011762;28;19941;-53
2022/11/26 08:05:13;;;;;;;;;;;3.60;93.80;;;;;;5008632;28;19913;-51
2022/11/26 08:07:42;;;;;;;;;;;3.70;93.90;;;;;;5011521;28;19913;-50
2022/11/26 08:10:08;;;;;;;;;;;3.70;93.90;;;;;;5009663;28;20396;-50
2022/11/26 08:12:35;;;;;;;;;;;3.70;93.90;;;;;;5013919;28;20057;-50
2022/11/26 08:15:02;;;;;;;;;;;3.60;93.80;;;;;;4998256;28;19909;-50
2022/11/26 08:17:29;;;;;;;;;;;3.60;93.90;;;;;;5010733;28;19913;-51
2022/11/26 08:19:56;;;;;;;;;;;3.70;94.00;;;;;;5008450;28;20327;-50
2022/11/26 08:22:23;;;;;;;;;;;3.70;93.90;;;;;;5011888;28;19909;-49
2022/11/26 08:24:49;;;;;;;;;;;3.70;94.00;;;;;;5012389;28;19918;-49
2022/11/26 08:27:16;;;;;;;;;;;3.80;94.10;;;;;;5011131;28;20012;-51
2022/11/26 08:29:42;;;;;;;;;;;3.80;94.10;;;;;;5009666;28;20329;-49
2022/11/26 08:32:09;;;;;;;;;;;3.80;94.10;;;;;;5010964;28;20400;-49
2022/11/26 08:34:36;;;;;;;;;;;3.90;94.20;;;;;;5005190;28;19910;-50
2022/11/26 08:37:03;;;;;;;;;;;3.90;94.20;;;;;;5020461;28;19944;-51
2022/11/26 08:39:30;;;;;;;;;;;3.90;94.20;;;;;;4996772;28;19905;-50
2022/11/26 08:41:59;;;;;;;;;;;4.00;94.20;;;;;;5013064;28;19913;-48
2022/11/26 08:44:26;;;;;;;;;;;4.10;94.40;;;;;;5013897;28;19957;-49
2022/11/26 08:46:56;;;;;;;;;;;4.20;94.30;;;;;;5013848;28;19916;-49
2022/11/26 08:49:22;;;;;;;;;;;4.30;94.30;;;;;;5006572;28;19910;-49
2022/11/26 08:51:49;;;;;;;;;;;4.30;94.30;;;;;;5012184;28;19925;-51
2022/11/26 08:54:15;;;;;;;;;;;4.40;94.30;;;;;;5013101;28;19992;-49
2022/11/26 08:56:41;;;;;;;;;;;4.50;94.30;;;;;;5012165;28;20060;-49
2022/11/26 08:59:08;;;;;;;;;;;4.50;94.30;;;;;;5013900;28;19916;-48
2022/11/26 09:01:35;;;;;;;;;;;4.40;94.20;;;;;;5013141;28;19913;-48
2022/11/26 09:04:03;;;;;;;;;;;4.60;94.40;;;;;;5011503;28;19924;-52
2022/11/26 09:06:35;;;;;;;;;;;4.60;94.30;;;;;;5007902;28;19936;-47
2022/11/26 09:09:11;;;;;;;;;;;4.60;94.30;;;;;;5011858;28;19924;-48
2022/11/26 09:11:48;;;;;;;;;;;4.60;94.40;;;;;;5008701;28;19964;-47
2022/11/26 09:14:16;;;;;;;;;;;4.70;94.50;;;;;;5003331;28;20347;-48
2022/11/26 09:16:43;;;;;;;;;;;4.90;94.60;;;;;;5005684;28;19951;-48
2022/11/26 09:19:11;;;;;;;;;;;4.90;94.60;;;;;;5006576;28;19917;-49
2022/11/26 09:21:40;;;;;;;;;;;5.00;94.50;;;;;;5007559;28;19909;-49
2022/11/26 09:24:07;;;;;;;;;;;5.00;94.60;;;;;;5007246;28;19952;-50
2022/11/26 09:26:34;;;;;;;;;;;5.10;94.70;;;;;;5001440;28;20258;-48
2022/11/26 09:29:01;;;;;;;;;;;5.10;94.60;;;;;;5009464;28;19924;-48
2022/11/26 09:31:29;;;;;;;;;;;5.10;94.60;;;;;;5011715;28;20282;-50
2022/11/26 09:33:57;;;;;;;;;;;5.20;94.70;;;;;;5012849;28;19909;-48
2022/11/26 09:36:24;;;;;;;;;;;5.20;94.80;;;;;;5012478;28;19910;-48
2022/11/26 09:38:57;;;;;;;;;;;5.30;94.80;;;;;;5011905;28;19960;-47
2022/11/26 09:41:46;;;;;;;;;;;5.40;94.80;;;;;;5011268;28;19909;-48
2022/11/26 09:44:30;;;;;;;;;;;5.60;94.90;;;;;;5007347;28;20373;-50
2022/11/26 09:47:14;;;;;;;;;;;5.70;94.80;;;;;;5011897;28;19909;-47
2022/11/26 09:49:46;;;;;;;;;;;5.70;94.90;;;;;;5009554;28;19916;-47
2022/11/26 09:52:16;;;;;;;;;;;5.80;94.80;;;;;;5006635;28;19921;-48
2022/11/26 09:54:43;;;;;;;;;;;5.80;94.80;;;;;;5011224;28;19924;-49
2022/11/26 09:57:21;;;;;;;;;;;5.80;94.80;;;;;;5006318;28;20051;-48
2022/11/26 09:59:48;;;;;;;;;;;5.80;94.80;;;;;;5005886;28;19909;-46
2022/11/26 10:02:15;;;;;;;;;;;5.80;94.80;;;;;;5008855;28;19920;-47
2022/11/26 10:04:41;;;;;;;;;;;5.90;94.80;;;;;;5010263;28;19910;-46
2022/11/26 10:07:26;;;;;;;;;;;5.90;94.80;;;;;;5003072;28;19920;-48
2022/11/26 10:10:04;;;;;;;;;;;6.00;94.90;;;;;;5007552;28;20071;-46
2022/11/26 10:12:48;;;;;;;;;;;6.10;94.90;;;;;;5002433;28;19932;-46
2022/11/26 10:15:33;;;;;;;;;;;6.30;94.90;;;;;;5001951;28;20265;-46
2022/11/26 10:18:17;;;;;;;;;;;6.30;94.80;;;;;;5010491;28;20135;-48
2022/11/26 10:20:54;;;;;;;;;;;6.30;94.70;;;;;;5002429;28;19910;-46
2022/11/26 10:23:26;;;;;;;;;;;6.40;94.70;;;;;;4995241;28;19920;-45
2022/11/26 10:26:12;;;;;;;;;;;6.40;94.80;;;;;;5017354;28;19914;-46
2022/11/26 10:28:49;;;;;;;;;;;6.40;94.70;;;;;;5009437;28;20369;-46
2022/11/26 10:31:19;;;;;;;;;;;6.50;94.70;;;;;;5011638;28;20342;-45
2022/11/26 10:34:07;;;;;;;;;;;6.50;94.70;;;;;;5010641;28;20321;-45
2022/11/26 10:36:34;;;;;;;;;;;6.60;94.80;;;;;;5011511;28;19913;-44
2022/11/26 10:39:00;;;;;;;;;;;6.60;94.70;;;;;;5009769;28;19957;-44
2022/11/26 10:41:28;;;;;;;;;;;6.60;94.70;;;;;;5014879;28;19949;-45
2022/11/26 10:43:54;;;;;;;;;;;6.50;94.70;;;;;;5015934;28;19909;-44
2022/11/26 10:46:33;;;;;;;;;;;6.60;94.80;;;;;;5015307;28;20334;-44
2022/11/26 10:49:19;;;;;;;;;;;6.70;94.70;;;;;;5014981;28;19937;-45
2022/11/26 10:51:47;;;;;;;;;;;6.70;94.60;;;;;;5004791;28;19933;-44
2022/11/26 10:54:31;;;;;;;;;;;6.70;94.70;;;;;;5014235;28;19918;-44
2022/11/26 10:57:17;;;;;;;;;;;6.60;94.70;;;;;;5009581;28;19913;-44
2022/11/26 11:00:01;;;;;;;;;;;6.60;94.70;;;;;;5014661;28;20012;-46
2022/11/26 11:02:48;;;;;;;;;;;6.70;94.80;;;;;;5001146;28;19933;-44
2022/11/26 11:05:19;;;;;;;;;;;6.80;94.80;;;;;;5017419;28;19913;-44
2022/11/26 11:07:46;;;;;;;;;;;6.90;94.80;;;;;;5015007;28;20004;-44
2022/11/26 11:10:34;;;;;;;;;;;6.90;94.80;;;;;;5008683;28;19932;-44
2022/11/26 11:13:05;;;;;;;;;;;7.10;94.90;;;;;;4997530;28;19918;-44
2022/11/26 11:15:35;;;;;;;;;;;7.20;94.80;;;;;;5012080;28;19914;-46
2022/11/26 11:18:07;;;;;;;;;;;7.20;94.80;;;;;;5014624;28;19918;-44
2022/11/26 11:20:52;;;;;;;;;;;7.20;94.70;;;;;;5012268;28;20227;-44
2022/11/26 11:23:36;;;;;;;;;;;7.30;94.70;;;;;;5005596;28;19909;-43
2022/11/26 11:26:20;;;;;;;;;;;7.20;94.50;;;;;;5014421;28;19920;-43
2022/11/26 11:28:48;;;;;;;;;;;7.20;94.60;;;;;;5012626;28;19945;-43
2022/11/26 11:31:24;;;;;;;;;;;7.20;94.70;;;;;;5013600;28;20010;-43
2022/11/26 11:34:11;;;;;;;;;;;7.30;94.70;;;;;;5012963;28;19964;-44
2022/11/26 11:36:41;;;;;;;;;;;7.30;94.60;;;;;;5013924;28;20050;-43
2022/11/26 11:39:25;;;;;;;;;;;7.30;94.60;;;;;;5015409;28;19913;-46
2022/11/26 11:41:52;;;;;;;;;;;7.30;94.50;;;;;;5013473;28;20071;-44
2022/11/26 11:44:40;;;;;;;;;;;7.30;94.60;;;;;;5010941;28;19963;-43
2022/11/26 11:47:25;;;;;;;;;;;7.30;94.60;;;;;;5003641;28;20445;-44
2022/11/26 11:50:09;;;;;;;;;;;7.40;94.70;;;;;;5010093;28;19961;-44
2022/11/26 11:52:55;;;;;;;;;;;7.40;94.60;;;;;;5013765;28;19913;-46
2022/11/26 11:55:39;;;;;;;;;;;7.40;94.60;;;;;;5011996;28;19968;-44
2022/11/26 11:58:25;;;;;;;;;;;7.40;94.60;;;;;;5013647;28;19905;-43
2022/11/26 12:00:57;;;;;;;;;;;7.40;94.70;;;;;;5012678;28;19917;-44
2022/11/26 12:03:43;;;;;;;;;;;7.50;94.80;;;;;;5011477;28;19911;-44
2022/11/26 12:06:27;;;;;;;;;;;7.50;94.70;;;;;;5013442;28;20268;-45
2022/11/26 12:09:18;;;;;;;;;;;7.50;94.70;;;;;;5012253;28;19976;-45
2022/11/26 12:12:02;;;;;;;;;;;7.60;94.80;;;;;;5006875;28;20016;-43
2022/11/26 12:14:46;;;;;;;;;;;7.70;94.80;;;;;;5010812;28;19951;-44
2022/11/26 12:17:21;;;;;;;;;;;7.60;94.70;;;;;;5010526;28;20372;-45
2022/11/26 12:19:55;;;;;;;;;;;7.60;94.80;;;;;;5011712;28;20011;-45
2022/11/26 12:22:27;;;;;;;;;;;7.70;94.80;;;;;;5007247;28;20121;-44
2022/11/26 12:25:11;;;;;;;;;;;7.70;94.80;;;;;;5012788;28;20341;-44
2022/11/26 12:27:43;;;;;;;;;;;7.70;94.70;;;;;;5010649;28;20367;-46
2022/11/26 12:30:30;;;;;;;;;;;7.70;94.70;;;;;;5008530;28;20000;-43
2022/11/26 12:33:06;;;;;;;;;;;7.70;94.70;;;;;;5012276;28;19996;-43
2022/11/26 12:35:35;;;;;;;;;;;7.70;94.70;;;;;;5009636;28;19917;-45
2022/11/26 12:38:10;;;;;;;;;;;7.70;94.80;;;;;;5008575;28;19909;-45
2022/11/26 12:40:49;;;;;;;;;;;7.70;94.70;;;;;;5010935;28;20263;-44
2022/11/26 12:43:39;;;;;;;;;;;7.70;94.70;;;;;;5010105;28;19936;-44
2022/11/26 12:46:29;;;;;;;;;;;7.70;94.80;;;;;;5004705;28;19936;-46
2022/11/26 12:49:15;;;;;;;;;;;7.80;94.80;;;;;;5002820;28;19996;-44
2022/11/26 12:52:08;;;;;;;;;;;7.80;94.80;;;;;;5007495;28;19913;-44
2022/11/26 12:54:58;;;;;;;;;;;7.80;94.80;;;;;;4985529;28;19920;-44
2022/11/26 12:57:37;;;;;;;;;;;7.80;94.80;;;;;;5013446;28;19913;-44
2022/11/26 13:00:25;;;;;;;;;;;7.90;94.80;;;;;;5012681;28;19913;-45
2022/11/26 13:02:52;;;;;;;;;;;7.90;94.80;;;;;;5012210;28;19971;-45
2022/11/26 13:05:36;;;;;;;;;;;7.80;94.80;;;;;;5009648;28;19966;-44
2022/11/26 13:08:32;;;;;;;;;;;7.80;94.80;;;;;;4993885;28;20362;-45
2022/11/26 13:11:19;;;;;;;;;;;7.80;94.80;;;;;;5003156;28;19953;-45
2022/11/26 13:13:53;;;;;;;;;;;7.80;94.80;;;;;;5013109;28;19967;-45
2022/11/26 13:16:35;;;;;;;;;;;7.80;94.80;;;;;;5006071;28;19953;-44
2022/11/26 13:19:22;;;;;;;;;;;7.80;94.80;;;;;;5010792;28;19925;-45
2022/11/26 13:21:59;;;;;;;;;;;7.80;94.90;;;;;;5002487;28;19999;-44
2022/11/26 13:24:44;;;;;;;;;;;7.80;94.80;;;;;;5008257;28;19921;-45
2022/11/26 13:27:15;;;;;;;;;;;7.80;94.90;;;;;;5003216;28;19914;-46
2022/11/26 13:30:04;;;;;;;;;;;7.80;94.90;;;;;;5017518;28;20326;-45
2022/11/26 13:32:49;;;;;;;;;;;7.80;94.90;;;;;;5009195;28;19971;-44
2022/11/26 13:35:33;;;;;;;;;;;7.80;94.90;;;;;;4999534;28;19909;-46
2022/11/26 13:38:26;;;;;;;;;;;7.80;94.90;;;;;;5010303;28;19953;-45
2022/11/26 13:41:04;;;;;;;;;;;7.70;94.90;;;;;;4983067;28;19960;-46
2022/11/26 13:43:49;;;;;;;;;;;7.70;94.90;;;;;;5011915;28;20258;-45
2022/11/26 13:46:33;;;;;;;;;;;7.60;94.90;;;;;;5009020;28;19913;-45
2022/11/26 13:49:08;;;;;;;;;;;7.70;95.00;;;;;;5012454;28;20255;-44
2022/11/26 13:51:54;;;;;;;;;;;7.70;95.00;;;;;;5010722;28;20317;-44
2022/11/26 13:54:25;;;;;;;;;;;7.70;95.00;;;;;;5003403;28;19913;-45
2022/11/26 13:57:02;;;;;;;;;;;7.70;95.10;;;;;;5012176;28;20279;-47
2022/11/26 13:59:30;;;;;;;;;;;7.60;95.10;;;;;;5010731;28;19961;-45
2022/11/26 14:01:56;;;;;;;;;;;7.70;95.10;;;;;;5011728;28;19913;-44
2022/11/26 14:04:25;;;;;;;;;;;7.70;95.10;;;;;;5002813;28;20505;-45
2022/11/26 14:07:05;;;;;;;;;;;7.70;95.10;;;;;;5012196;28;19909;-44
2022/11/26 14:09:40;;;;;;;;;;;7.60;95.10;;;;;;5010435;28;20012;-44
2022/11/26 14:12:06;;;;;;;;;;;7.60;95.20;;;;;;5010334;28;19957;-44
2022/11/26 14:14:33;;;;;;;;;;;7.70;95.20;;;;;;5014371;28;19940;-45
2022/11/26 14:17:11;;;;;;;;;;;7.70;95.20;;;;;;5016876;28;19917;-44
2022/11/26 14:19:39;;;;;;;;;;;7.70;95.20;;;;;;5012704;28;19909;-44
2022/11/26 14:22:23;;;;;;;;;;;7.70;95.20;;;;;;5014328;28;20005;-45
2022/11/26 14:25:08;;;;;;;;;;;7.70;95.20;;;;;;4996858;28;19909;-44
2022/11/26 14:27:54;;;;;;;;;;;7.70;95.20;;;;;;5010294;28;19921;-45
2022/11/26 14:30:24;;;;;;;;;;;7.70;95.30;;;;;;4996509;28;19914;-44
2022/11/26 14:32:50;;;;;;;;;;;7.60;95.20;;;;;;5010933;28;19917;-45
2022/11/26 14:35:28;;;;;;;;;;;7.70;95.20;;;;;;5013190;28;20315;-46
2022/11/26 14:37:56;;;;;;;;;;;7.70;95.20;;;;;;5012485;28;19936;-45
2022/11/26 14:40:26;;;;;;;;;;;7.70;95.30;;;;;;5011459;28;19986;-46
2022/11/26 14:43:10;;;;;;;;;;;7.60;95.20;;;;;;5012440;28;20323;-45
2022/11/26 14:45:36;;;;;;;;;;;7.60;95.30;;;;;;5011447;28;20241;-45
2022/11/26 14:48:03;;;;;;;;;;;7.70;95.30;;;;;;5005531;28;20004;-46
2022/11/26 14:50:30;;;;;;;;;;;7.70;95.30;;;;;;5004218;28;19985;-48
2022/11/26 14:53:01;;;;;;;;;;;7.70;95.30;;;;;;5010092;28;19917;-45
2022/11/26 14:55:31;;;;;;;;;;;7.60;95.30;;;;;;5008763;28;20691;-45
2022/11/26 14:58:27;;;;;;;;;;;7.60;95.30;;;;;;5010503;28;20242;-45